Time;durP1;ratioP1;P1;durP2;ratioP2;P2;SDS_P1;SDS_P2;PMS_P1;PMS_P2;Temp;Humidity;BMP_temperature;BMP_pressure;BME280_temperature;BME280_humidity;BME280_pressure;Samples;Min_cycle;Max_cycle;Signal;HPM_P1;HPM_P2
2022/04/07 00:01:50;;;;;;;15.83;8.48;;;;;;;7.57;69.85;100596.73;1758591;81;20987;-75
2022/04/07 00:04:18;;;;;;;10.13;7.60;;;;;;;7.54;69.99;100589.05;1758200;81;20964;-73
2022/04/07 00:06:45;;;;;;;13.60;8.23;;;;;;;7.44;70.25;100590.77;1760716;81;20948;-70
2022/04/07 00:09:12;;;;;;;13.93;9.40;;;;;;;7.37;70.44;100585.93;1761609;81;21122;-70
2022/04/07 00:11:38;;;;;;;13.83;8.48;;;;;;;7.30;70.65;100597.11;1759093;81;21504;-75
2022/04/07 00:14:07;;;;;;;11.95;7.87;;;;;;;7.26;70.83;100590.34;1758010;81;20856;-74
2022/04/07 00:16:35;;;;;;;16.02;9.33;;;;;;;7.26;71.02;100590.34;1757930;81;21062;-75
2022/04/07 00:19:05;;;;;;;13.80;7.25;;;;;;;7.25;71.16;100596.03;1758081;80;21378;-75
2022/04/07 00:21:46;;;;;;;11.20;7.90;;;;;;;7.27;71.18;100599.87;1757853;81;20991;-75
2022/04/07 00:24:10;;;;;;;11.50;7.40;;;;;;;7.25;71.26;100604.31;1757714;81;20975;-74
2022/04/07 00:26:37;;;;;;;12.70;8.43;;;;;;;7.22;71.34;100601.36;1758064;81;21350;-74
2022/04/07 00:29:04;;;;;;;15.00;8.15;;;;;;;7.22;71.28;100605.27;1758167;81;21085;-73
2022/04/07 00:31:39;;;;;;;12.53;7.80;;;;;;;7.20;71.38;100607.58;1758154;81;20979;-75
2022/04/07 00:34:00;;;;;;;9.85;7.90;;;;;;;7.16;71.50;100605.59;1757387;81;20924;-74
2022/04/07 00:36:27;;;;;;;14.23;7.53;;;;;;;7.09;71.53;100606.76;1757913;81;20916;-74
2022/04/07 00:38:54;;;;;;;13.95;8.58;;;;;;;7.03;71.59;100600.08;1758123;81;20928;-73
2022/04/07 00:41:21;;;;;;;14.58;8.18;;;;;;;6.99;71.83;100597.69;1752894;81;21299;-74
2022/04/07 00:43:50;;;;;;;10.75;7.85;;;;;;;6.92;71.99;100593.20;1745021;81;20925;-74
2022/04/07 00:46:17;;;;;;;11.50;7.17;;;;;;;6.84;72.26;100591.39;1744931;81;20885;-74
2022/04/07 00:48:44;;;;;;;12.15;7.70;;;;;;;6.77;72.63;100604.31;1744708;81;20893;-74
2022/04/07 00:51:10;;;;;;;15.85;7.75;;;;;;;6.69;73.09;100590.30;1744719;82;21047;-74
2022/04/07 00:53:38;;;;;;;18.60;8.10;;;;;;;6.59;73.71;100591.18;1744740;81;21814;-75
2022/04/07 00:56:06;;;;;;;11.70;7.83;;;;;;;6.51;73.81;100595.03;1744731;80;20893;-74
2022/04/07 00:58:34;;;;;;;14.53;7.80;;;;;;;6.45;73.98;100592.25;1744698;81;21011;-74
2022/04/07 01:01:05;;;;;;;14.43;8.80;;;;;;;6.41;74.22;100595.44;1744555;81;20972;-73
2022/04/07 01:03:32;;;;;;;12.33;8.83;;;;;;;6.35;74.45;100603.50;1744740;82;21013;-74
2022/04/07 01:06:00;;;;;;;14.30;8.78;;;;;;;6.29;74.51;100601.19;1691520;82;21241;-74
2022/04/07 01:08:27;;;;;;;12.95;8.85;;;;;;;6.22;74.73;100595.82;1686425;82;20920;-74
2022/04/07 01:10:54;;;;;;;14.50;9.13;;;;;;;6.17;74.92;100590.81;1744995;81;20845;-74
2022/04/07 01:13:22;;;;;;;19.55;10.88;;;;;;;6.10;75.03;100595.89;1744826;81;21327;-73
2022/04/07 01:15:50;;;;;;;17.45;12.00;;;;;;;6.03;75.57;100603.57;1744751;80;20917;-75
2022/04/07 01:18:18;;;;;;;20.23;11.48;;;;;;;5.90;76.11;100603.65;1744683;81;21027;-74
2022/04/07 01:20:45;;;;;;;20.27;14.45;;;;;;;5.81;76.14;100591.86;1744518;81;21467;-74
2022/04/07 01:23:13;;;;;;;18.82;12.15;;;;;;;5.75;76.45;100602.50;1744744;81;20940;-74
2022/04/07 01:25:39;;;;;;;18.87;12.55;;;;;;;5.71;76.60;100604.84;1734116;81;21584;-74
2022/04/07 01:28:07;;;;;;;24.92;14.80;;;;;;;5.68;76.97;100598.47;1744715;81;20892;-73
2022/04/07 01:30:34;;;;;;;25.97;14.50;;;;;;;5.61;77.13;100600.47;1744611;81;21608;-75
2022/04/07 01:33:01;;;;;;;20.50;13.03;;;;;;;5.57;77.26;100597.59;1744619;81;20984;-74
2022/04/07 01:35:28;;;;;;;16.85;13.32;;;;;;;5.55;77.44;100602.84;1744818;81;21391;-75
2022/04/07 01:37:54;;;;;;;25.12;14.55;;;;;;;5.54;77.53;100599.86;1745031;82;20889;-75
2022/04/07 01:40:26;;;;;;;26.35;16.60;;;;;;;5.53;77.47;100595.55;1744718;81;20932;-74
2022/04/07 01:42:54;;;;;;;25.88;18.10;;;;;;;5.51;77.63;100600.42;1756604;80;20880;-73
2022/04/07 01:45:21;;;;;;;23.83;18.15;;;;;;;5.46;77.85;100602.36;1757973;81;20928;-75
2022/04/07 01:47:49;;;;;;;31.90;17.60;;;;;;;5.41;77.83;100599.95;1758087;81;20964;-75
2022/04/07 01:50:17;;;;;;;26.27;18.02;;;;;;;5.39;77.92;100598.70;1758213;81;20947;-74
2022/04/07 01:52:45;;;;;;;28.47;18.07;;;;;;;5.38;78.07;100610.02;1758074;80;20920;-74
2022/04/07 01:55:12;;;;;;;30.32;20.50;;;;;;;5.35;78.11;100607.98;1758304;81;21239;-74
2022/04/07 01:57:40;;;;;;;27.67;18.70;;;;;;;5.32;78.24;100608.11;1693923;81;20979;-74
2022/04/07 02:00:09;;;;;;;28.17;19.98;;;;;;;5.30;78.38;100612.52;1758513;81;20881;-74
2022/04/07 02:02:42;;;;;;;33.53;20.70;;;;;;;5.27;78.45;100605.69;1758168;81;20924;-74
2022/04/07 02:05:11;;;;;;;26.77;19.20;;;;;;;5.23;78.49;100610.61;1758134;80;21453;-75
2022/04/07 02:07:43;;;;;;;33.08;19.17;;;;;;;5.21;78.68;100610.27;1758181;81;21088;-74
2022/04/07 02:10:12;;;;;;;30.68;20.52;;;;;;;5.16;78.89;100620.84;1758072;81;21417;-74
2022/04/07 02:12:42;;;;;;;28.67;20.37;;;;;;;5.14;78.99;100611.80;1758033;81;20935;-73
2022/04/07 02:15:11;;;;;;;31.25;20.52;;;;;;;5.16;79.03;100614.34;1758052;81;21438;-74
2022/04/07 02:17:40;;;;;;;30.17;21.82;;;;;;;5.16;79.10;100620.84;1758092;81;20933;-74
2022/04/07 02:20:09;;;;;;;30.52;21.23;;;;;;;5.17;79.22;100619.47;1758004;81;20888;-74
2022/04/07 02:22:36;;;;;;;29.07;22.62;;;;;;;5.16;79.25;100624.75;1758068;80;21438;-75
2022/04/07 02:25:08;;;;;;;28.55;19.90;;;;;;;5.15;79.29;100621.73;1758094;81;20931;-76
2022/04/07 02:27:38;;;;;;;34.15;21.50;;;;;;;5.14;79.37;100621.35;1758075;81;20924;-76
2022/04/07 02:30:08;;;;;;;29.05;20.97;;;;;;;5.10;79.44;100619.31;1758101;81;20886;-74
2022/04/07 02:32:35;;;;;;;30.00;22.98;;;;;;;5.09;79.78;100629.75;1757932;81;21789;-73
2022/04/07 02:35:05;;;;;;;27.37;21.05;;;;;;;5.07;79.73;100622.03;1757822;81;20892;-73
2022/04/07 02:37:31;;;;;;;26.55;20.80;;;;;;;5.06;79.80;100626.82;1758224;81;20971;-73
2022/04/07 02:39:58;;;;;;;31.33;21.12;;;;;;;5.07;79.82;100634.16;1758045;81;20876;-73
2022/04/07 02:42:26;;;;;;;29.95;20.70;;;;;;;5.07;80.04;100643.25;1757784;80;20888;-73
2022/04/07 02:44:53;;;;;;;30.32;23.38;;;;;;;5.07;80.08;100640.66;1758247;81;21185;-73
2022/04/07 02:47:19;;;;;;;30.52;20.50;;;;;;;5.09;80.10;100633.23;1757831;81;20960;-74
2022/04/07 02:49:46;;;;;;;30.27;22.05;;;;;;;5.11;80.23;100639.22;1757954;80;21397;-72
2022/04/07 02:52:12;;;;;;;30.20;19.42;;;;;;;5.10;80.14;100634.91;1758105;81;20924;-72
2022/04/07 02:54:39;;;;;;;31.77;22.22;;;;;;;5.09;80.16;100634.52;1757876;81;21544;-73
2022/04/07 02:57:05;;;;;;;32.98;22.35;;;;;;;5.10;80.15;100640.56;1757953;81;21111;-73
2022/04/07 02:59:33;;;;;;;35.63;23.35;;;;;;;5.13;80.19;100641.28;1757826;81;20932;-73
2022/04/07 03:02:00;;;;;;;29.12;22.20;;;;;;;5.17;80.08;100640.72;1757887;81;21382;-73
2022/04/07 03:04:27;;;;;;;34.10;22.35;;;;;;;5.20;80.01;100638.00;1757778;81;20904;-74
2022/04/07 03:06:55;;;;;;;35.13;21.55;;;;;;;5.25;79.95;100645.19;1757991;81;20921;-73
2022/04/07 03:09:21;;;;;;;27.55;21.97;;;;;;;5.27;79.80;100643.39;1758126;81;21802;-73
2022/04/07 03:11:50;;;;;;;34.43;24.20;;;;;;;5.30;79.72;100638.06;1758138;81;20972;-74
2022/04/07 03:14:17;;;;;;;31.95;22.48;;;;;;;5.32;79.75;100641.91;1757909;80;20920;-74
2022/04/07 03:16:48;;;;;;;48.00;30.92;;;;;;;5.38;79.65;100641.66;1757896;81;20923;-75
2022/04/07 03:19:16;;;;;;;31.82;24.00;;;;;;;5.43;79.46;100642.34;1758108;80;20865;-73
2022/04/07 03:21:45;;;;;;;32.85;21.90;;;;;;;5.48;79.37;100645.61;1759698;80;20869;-68
2022/04/07 03:24:11;;;;;;;33.23;22.80;;;;;;;5.52;79.14;100650.25;1759085;81;21452;-70
2022/04/07 03:26:39;;;;;;;28.62;22.10;;;;;;;5.54;78.97;100645.38;1758470;81;21018;-73
2022/04/07 03:29:06;;;;;;;33.02;22.20;;;;;;;5.59;78.83;100648.64;1757833;81;20943;-72
2022/04/07 03:31:33;;;;;;;30.77;23.00;;;;;;;5.64;78.73;100644.55;1758004;81;21631;-73
2022/04/07 03:34:01;;;;;;;31.75;21.48;;;;;;;5.70;78.48;100643.48;1758032;81;21132;-73
2022/04/07 03:36:28;;;;;;;33.85;21.80;;;;;;;5.75;78.27;100649.34;1757875;81;20880;-72
2022/04/07 03:38:56;;;;;;;37.30;24.37;;;;;;;5.77;78.11;100656.64;1758021;80;20952;-72
2022/04/07 03:41:23;;;;;;;32.25;24.35;;;;;;;5.75;77.86;100650.19;1757880;80;20936;-74
2022/04/07 03:43:50;;;;;;;31.75;22.45;;;;;;;5.79;77.86;100656.12;1757880;80;20943;-72
2022/04/07 03:46:21;;;;;;;32.73;22.52;;;;;;;5.84;77.81;100654.17;1757876;81;20924;-74
2022/04/07 03:48:46;;;;;;;31.30;23.77;;;;;;;5.90;77.66;100651.34;1757740;80;20923;-73
2022/04/07 03:51:13;;;;;;;34.53;23.20;;;;;;;5.92;77.45;100651.28;1757850;81;21461;-73
2022/04/07 03:53:41;;;;;;;32.83;25.00;;;;;;;5.94;77.37;100652.08;1757861;81;20908;-73
2022/04/07 03:56:08;;;;;;;30.85;23.02;;;;;;;5.97;77.31;100655.88;1757981;81;20884;-73
2022/04/07 03:58:37;;;;;;;34.48;24.50;;;;;;;6.01;77.15;100654.38;1757896;81;20896;-73
2022/04/07 04:01:04;;;;;;;33.58;25.40;;;;;;;6.01;77.04;100655.69;1757819;81;20838;-73
2022/04/07 04:03:31;;;;;;;38.58;25.68;;;;;;;6.06;76.95;100653.36;1758125;81;20931;-73
2022/04/07 04:05:57;;;;;;;30.50;22.62;;;;;;;6.11;76.96;100654.84;1758327;80;20939;-74
2022/04/07 04:08:24;;;;;;;34.03;23.90;;;;;;;6.21;76.67;100663.14;1758163;81;20939;-74
2022/04/07 04:10:52;;;;;;;32.85;23.27;;;;;;;6.22;76.43;100653.98;1758115;81;21430;-75
2022/04/07 04:13:20;;;;;;;34.03;23.00;;;;;;;6.27;76.41;100657.69;1757936;81;20932;-73
2022/04/07 04:15:48;;;;;;;32.95;23.38;;;;;;;6.32;76.26;100655.73;1758073;80;20924;-72
2022/04/07 04:18:15;;;;;;;34.83;24.32;;;;;;;6.39;76.15;100652.41;1758025;81;20939;-73
2022/04/07 04:20:42;;;;;;;32.25;24.37;;;;;;;6.44;76.00;100663.48;1758247;80;21472;-73
2022/04/07 04:23:08;;;;;;;28.75;24.50;;;;;;;6.52;75.91;100650.14;1758083;81;21225;-72
2022/04/07 04:25:37;;;;;;;31.90;23.50;;;;;;;6.60;75.61;100654.55;1758018;81;20841;-74
2022/04/07 04:28:04;;;;;;;30.82;22.95;;;;;;;6.67;75.51;100656.00;1758026;81;21386;-73
2022/04/07 04:30:31;;;;;;;31.15;20.95;;;;;;;6.79;75.56;100667.65;1758035;81;20963;-74
2022/04/07 04:32:58;;;;;;;28.77;22.48;;;;;;;6.95;75.15;100658.23;1758094;81;21465;-74
2022/04/07 04:35:25;;;;;;;29.37;20.82;;;;;;;7.08;74.70;100658.53;1758092;81;21133;-74
2022/04/07 04:37:53;;;;;;;29.10;20.08;;;;;;;7.20;74.39;100653.22;1758068;81;20884;-73
2022/04/07 04:40:21;;;;;;;32.55;22.30;;;;;;;7.32;74.15;100656.58;1758032;81;21448;-73
2022/04/07 04:42:49;;;;;;;23.15;19.07;;;;;;;7.44;74.03;100654.70;1752050;81;21004;-73
2022/04/07 04:45:17;;;;;;;26.80;19.12;;;;;;;7.62;73.50;100654.29;1744738;81;20873;-73
2022/04/07 04:47:45;;;;;;;23.80;19.75;;;;;;;7.80;73.29;100655.64;1744881;81;21854;-73
2022/04/07 04:50:14;;;;;;;26.57;21.55;;;;;;;8.03;72.75;100654.09;1744906;81;20913;-75
2022/04/07 04:52:42;;;;;;;26.80;19.82;;;;;;;8.27;71.86;100660.31;1744912;81;20978;-76
2022/04/07 04:55:09;;;;;;;26.95;22.00;;;;;;;8.53;71.05;100669.96;1744609;81;20976;-76
2022/04/07 04:57:37;;;;;;;23.50;20.40;;;;;;;8.74;70.26;100672.80;1744881;81;20853;-76
2022/04/07 05:00:06;;;;;;;25.50;19.85;;;;;;;8.99;69.34;100663.67;1744736;82;21851;-76
2022/04/07 05:02:35;;;;;;;22.27;17.87;;;;;;;9.25;68.86;100672.29;1744700;81;20874;-75
2022/04/07 05:05:02;;;;;;;22.20;18.85;;;;;;;9.58;67.80;100663.98;1744708;81;21478;-74
2022/04/07 05:07:30;;;;;;;19.60;17.45;;;;;;;9.92;67.18;100657.72;1744816;81;21716;-75
2022/04/07 05:09:56;;;;;;;20.50;17.92;;;;;;;10.35;66.07;100665.28;1744777;81;20925;-77
2022/04/07 05:12:23;;;;;;;18.82;16.87;;;;;;;10.90;64.87;100655.08;1745094;81;21809;-75
2022/04/07 05:14:51;;;;;;;20.75;18.65;;;;;;;11.44;62.79;100663.09;1744626;82;20901;-75
2022/04/07 05:17:19;;;;;;;18.73;16.80;;;;;;;11.92;61.23;100658.30;1744823;81;20910;-76
2022/04/07 05:19:48;;;;;;;18.15;16.32;;;;;;;12.33;59.47;100656.52;1744782;81;21403;-77
2022/04/07 05:22:14;;;;;;;17.52;15.72;;;;;;;12.74;58.52;100653.73;1744982;82;21386;-75
2022/04/07 05:24:43;;;;;;;16.17;14.70;;;;;;;13.10;56.81;100661.34;1745558;81;21042;-75
2022/04/07 05:27:10;;;;;;;17.25;15.43;;;;;;;13.32;55.91;100656.75;1744552;82;20984;-75
2022/04/07 05:29:37;;;;;;;15.83;14.33;;;;;;;13.57;55.01;100654.52;1744670;81;20924;-76
2022/04/07 05:32:06;;;;;;;15.23;13.72;;;;;;;13.77;54.17;100650.91;1744804;81;20987;-75
2022/04/07 05:34:34;;;;;;;14.65;13.28;;;;;;;14.34;52.52;100651.52;1744930;81;20869;-75
2022/04/07 05:37:01;;;;;;;14.30;13.00;;;;;;;14.34;52.52;100651.52;1744793;81;21123;-75
2022/04/07 05:39:28;;;;;;;13.70;12.37;;;;;;;14.64;51.73;100649.67;1744531;81;21393;-75
2022/04/07 05:41:54;;;;;;;14.07;12.63;;;;;;;15.03;51.59;100651.98;1744929;81;20898;-75
2022/04/07 05:44:21;;;;;;;13.20;11.90;;;;;;;15.64;50.66;100656.86;1744601;81;20929;-75
2022/04/07 05:46:48;;;;;;;13.83;11.55;;;;;;;16.10;48.33;100651.81;1744849;81;20858;-75
2022/04/07 05:49:14;;;;;;;13.22;11.95;;;;;;;16.30;47.54;100649.66;1744616;81;21248;-77
2022/04/07 05:51:42;;;;;;;14.53;13.03;;;;;;;16.47;46.85;100655.34;1744523;82;20945;-76
2022/04/07 05:54:09;;;;;;;15.08;13.60;;;;;;;16.62;46.65;100656.69;1744558;80;20938;-75
2022/04/07 05:56:36;;;;;;;13.60;12.23;;;;;;;16.74;45.83;100657.44;1744856;81;20932;-75
2022/04/07 05:59:03;;;;;;;14.45;12.95;;;;;;;16.78;45.71;100665.02;1744679;81;20944;-76
2022/04/07 06:01:30;;;;;;;13.35;12.07;;;;;;;16.94;45.69;100657.09;1744541;81;21610;-75
2022/04/07 06:03:57;;;;;;;12.85;11.43;;;;;;;17.24;45.04;100653.59;1744904;81;20917;-75
2022/04/07 06:06:23;;;;;;;13.03;10.95;;;;;;;17.59;44.36;100656.28;1744615;82;20944;-75
2022/04/07 06:08:51;;;;;;;13.43;11.28;;;;;;;17.80;43.40;100653.50;1744575;81;20940;-76
2022/04/07 06:11:20;;;;;;;11.97;10.78;;;;;;;18.00;42.58;100652.56;1744671;81;20976;-76
2022/04/07 06:13:48;;;;;;;11.63;10.38;;;;;;;18.12;42.28;100654.61;1744720;81;20846;-77
2022/04/07 06:16:15;;;;;;;12.20;11.00;;;;;;;18.18;41.67;100650.54;1744590;81;20936;-75
2022/04/07 06:18:42;;;;;;;10.85;9.75;;;;;;;18.28;41.83;100649.23;1744669;81;20925;-76
2022/04/07 06:21:09;;;;;;;11.05;10.03;;;;;;;18.49;41.33;100648.55;1744622;81;20916;-76
2022/04/07 06:23:37;;;;;;;13.18;9.90;;;;;;;18.60;40.73;100648.88;1744930;82;20956;-76
2022/04/07 06:26:05;;;;;;;11.40;9.70;;;;;;;18.75;40.79;100652.75;1744862;82;21076;-76
2022/04/07 06:28:31;;;;;;;9.85;8.90;;;;;;;19.10;39.52;100642.44;1744540;81;20900;-76
2022/04/07 06:30:58;;;;;;;10.25;9.20;;;;;;;19.28;39.11;100649.17;1744906;82;20998;-77
2022/04/07 06:33:25;;;;;;;10.88;8.78;;;;;;;19.49;38.66;100642.25;1745194;81;20928;-75
2022/04/07 06:35:52;;;;;;;11.63;8.78;;;;;;;19.67;37.87;100643.95;1745996;81;20905;-73
2022/04/07 06:38:19;;;;;;;9.68;8.68;;;;;;;19.80;37.83;100642.27;1746732;81;21134;-73
2022/04/07 06:40:47;;;;;;;8.30;7.53;;;;;;;19.94;37.44;100638.23;1745436;81;20932;-75
2022/04/07 06:43:14;;;;;;;9.33;8.53;;;;;;;19.94;36.96;100642.72;1745215;80;20924;-75
2022/04/07 06:45:41;;;;;;;9.63;8.58;;;;;;;20.09;37.27;100637.20;1744928;81;20893;-76
2022/04/07 06:48:08;;;;;;;7.42;6.55;;;;;;;20.41;36.66;100633.11;1744796;81;20866;-75
2022/04/07 06:50:35;;;;;;;7.83;7.12;;;;;;;20.70;36.10;100632.86;1744966;81;21339;-78
2022/04/07 06:53:02;;;;;;;7.40;6.42;;;;;;;20.78;35.63;100630.22;1744795;81;20988;-77
2022/04/07 06:55:29;;;;;;;8.10;6.70;;;;;;;20.82;35.39;100635.58;1744770;81;20986;-76
2022/04/07 06:58:01;;;;;;;7.95;7.25;;;;;;;20.94;35.41;100632.12;1745267;81;20853;-72
2022/04/07 07:00:30;;;;;;;6.70;6.10;;;;;;;21.09;35.14;100633.20;1745197;80;20900;-75
2022/04/07 07:03:01;;;;;;;6.03;5.17;;;;;;;21.41;35.23;100644.18;1744632;81;21548;-75
2022/04/07 07:05:30;;;;;;;6.10;5.70;;;;;;;21.57;33.76;100642.08;1744705;81;20924;-74
2022/04/07 07:07:57;;;;;;;6.30;5.62;;;;;;;21.58;33.83;100643.73;1744723;81;20885;-75
2022/04/07 07:10:28;;;;;;;6.25;5.42;;;;;;;21.63;33.78;100633.40;1744530;80;20952;-76
2022/04/07 07:12:55;;;;;;;6.12;5.60;;;;;;;21.80;33.55;100633.77;1744604;82;21398;-75
2022/04/07 07:15:21;;;;;;;7.28;6.37;;;;;;;22.07;33.06;100641.95;1744760;80;21120;-73
2022/04/07 07:17:51;;;;;;;7.83;5.80;;;;;;;22.18;32.07;100637.30;1734101;82;20984;-76
2022/04/07 07:20:18;;;;;;;6.42;5.83;;;;;;;22.16;32.31;100625.44;1744633;81;21346;-76
2022/04/07 07:22:47;;;;;;;6.37;5.50;;;;;;;22.25;32.29;100631.64;1744635;81;20905;-75
2022/04/07 07:25:14;;;;;;;6.45;5.80;;;;;;;22.49;32.12;100632.12;1745122;81;20933;-75
2022/04/07 07:27:45;;;;;;;5.75;5.20;;;;;;;22.81;31.72;100623.69;1744762;81;21249;-75
2022/04/07 07:30:15;;;;;;;5.35;4.60;;;;;;;22.91;30.95;100628.34;1744333;81;20940;-75
2022/04/07 07:32:46;;;;;;;5.75;5.03;;;;;;;22.85;30.98;100623.67;1744748;81;20889;-75
2022/04/07 07:35:14;;;;;;;7.33;5.50;;;;;;;23.04;30.81;100622.48;1744653;81;20976;-74
2022/04/07 07:37:56;;;;;;;5.70;4.33;;;;;;;23.28;30.51;100618.36;1745106;81;20957;-75
2022/04/07 07:40:25;;;;;;;6.67;4.30;;;;;;;23.51;29.24;100620.23;1744725;81;21236;-75
2022/04/07 07:42:56;;;;;;;5.67;4.53;;;;;;;23.52;28.37;100619.20;1745283;80;20948;-77
2022/04/07 07:45:24;;;;;;;6.28;5.12;;;;;;;23.50;28.74;100611.86;1757842;81;21315;-74
2022/04/07 07:47:55;;;;;;;5.65;5.17;;;;;;;23.69;28.91;100610.06;1757847;81;21472;-77
2022/04/07 07:50:22;;;;;;;4.90;4.40;;;;;;;23.96;28.37;100619.94;1758013;80;20876;-76
2022/04/07 07:52:49;;;;;;;6.80;6.08;;;;;;;24.14;27.74;100604.89;1758308;81;21060;-76
2022/04/07 07:58:00;;;;;;;6.47;4.78;;;;;;;24.06;26.70;100599.11;1798728;79;22497;-75
2022/04/07 08:00:27;;;;;;;7.53;5.08;;;;;;;23.90;27.18;100590.70;1758640;80;20967;-74
2022/04/07 08:02:54;;;;;;;6.37;4.55;;;;;;;24.07;26.96;100595.91;1758348;80;21841;-74
2022/04/07 08:05:21;;;;;;;6.05;4.58;;;;;;;24.38;26.69;100590.42;1758304;80;20916;-74
2022/04/07 08:07:48;;;;;;;5.37;4.85;;;;;;;24.76;25.92;100590.38;1758472;81;20892;-75
2022/04/07 08:10:15;;;;;;;5.60;4.65;;;;;;;24.85;24.97;100587.09;1758338;81;20943;-74
2022/04/07 08:12:43;;;;;;;8.15;4.20;;;;;;;24.78;24.60;100589.69;1758422;81;20983;-76
2022/04/07 08:15:12;;;;;;;6.42;4.72;;;;;;;24.67;24.26;100588.81;1758296;81;20829;-76
2022/04/07 08:17:40;;;;;;;4.25;3.47;;;;;;;24.44;24.53;100585.67;1758174;81;21445;-75
2022/04/07 08:20:08;;;;;;;10.03;4.12;;;;;;;24.13;24.21;100572.42;1758553;81;20940;-76
2022/04/07 08:22:35;;;;;;;4.45;4.05;;;;;;;23.91;24.26;100572.78;1758199;80;20896;-77
2022/04/07 08:25:03;;;;;;;3.90;3.50;;;;;;;23.75;24.49;100573.23;1758658;81;20970;-76
2022/04/07 08:27:31;;;;;;;8.73;3.37;;;;;;;23.66;24.83;100560.90;1758425;81;20841;-75
2022/04/07 08:29:58;;;;;;;3.87;3.17;;;;;;;23.68;24.70;100560.70;1758262;81;20888;-76
2022/04/07 08:32:25;;;;;;;4.08;3.25;;;;;;;23.66;24.25;100544.84;1758377;81;21346;-75
2022/04/07 08:34:52;;;;;;;6.42;3.37;;;;;;;23.75;24.36;100540.28;1758745;81;20853;-76
2022/04/07 08:37:20;;;;;;;4.60;2.90;;;;;;;23.83;24.20;100540.70;1758432;81;20829;-76
2022/04/07 08:39:49;;;;;;;5.15;3.15;;;;;;;23.88;24.46;100533.80;1758570;81;21818;-77
2022/04/07 08:42:16;;;;;;;4.00;3.02;;;;;;;24.11;23.89;100536.94;1758318;81;20936;-75
2022/04/07 08:44:43;;;;;;;4.62;3.45;;;;;;;24.36;23.87;100527.61;1758212;81;21008;-76
2022/04/07 08:47:10;;;;;;;6.35;3.05;;;;;;;24.55;23.81;100530.28;1758349;81;20940;-75
2022/04/07 08:49:37;;;;;;;3.17;2.90;;;;;;;24.69;24.03;100519.22;1758660;81;21475;-74
2022/04/07 08:52:08;;;;;;;4.00;2.92;;;;;;;24.73;23.61;100525.88;1758311;81;21265;-76
2022/04/07 08:54:34;;;;;;;4.45;2.67;;;;;;;24.82;23.91;100522.58;1758439;81;20896;-75
2022/04/07 08:57:01;;;;;;;3.25;2.83;;;;;;;24.91;23.83;100513.39;1757826;80;20924;-76
2022/04/07 08:59:27;;;;;;;2.70;2.50;;;;;;;25.11;23.55;100523.02;1758632;80;20935;-77
2022/04/07 09:02:04;;;;;;;2.95;2.67;;;;;;;25.20;23.38;100510.34;1758750;80;20932;-76
2022/04/07 09:04:33;;;;;;;4.22;3.00;;;;;;;25.15;23.24;100507.38;1758734;81;21226;-75
2022/04/07 09:07:00;;;;;;;7.70;3.25;;;;;;;24.98;23.12;100516.98;1758765;81;21026;-75
2022/04/07 09:09:31;;;;;;;3.10;2.80;;;;;;;24.77;23.04;100507.56;1758454;81;20939;-75
2022/04/07 09:12:00;;;;;;;3.92;3.12;;;;;;;24.50;23.50;100505.89;1758307;81;20904;-76
2022/04/07 09:14:35;;;;;;;2.95;2.75;;;;;;;24.40;23.83;100489.21;1758236;81;20892;-76
2022/04/07 09:17:05;;;;;;;3.50;2.62;;;;;;;24.46;23.81;100486.31;1758172;81;20999;-78
2022/04/07 09:19:34;;;;;;;6.72;2.83;;;;;;;24.48;23.65;100487.81;1757978;80;20928;-76
2022/04/07 09:22:08;;;;;;;5.78;2.62;;;;;;;24.69;24.09;100483.02;1758048;80;20923;-77
2022/04/07 09:24:37;;;;;;;2.52;1.87;;;;;;;25.06;22.71;100487.87;1757954;81;21445;-77
2022/04/07 09:27:06;;;;;;;2.85;2.10;;;;;;;25.04;21.70;100480.52;1757990;80;20900;-76
2022/04/07 09:29:44;;;;;;;3.33;2.20;;;;;;;24.88;22.35;100474.03;1758034;81;21417;-78
2022/04/07 09:32:25;;;;;;;2.87;1.98;;;;;;;24.92;21.89;100476.17;1757911;81;21007;-78
2022/04/07 09:34:54;;;;;;;4.10;2.00;;;;;;;24.90;21.70;100467.97;1758152;81;21350;-76
2022/04/07 09:37:23;;;;;;;3.58;2.87;;;;;;;25.09;21.67;100452.59;1721755;83;20864;-75
2022/04/07 09:40:06;;;;;;;3.65;2.60;;;;;;;25.29;21.34;100439.40;1722018;83;20931;-76
2022/04/07 09:42:34;;;;;;;2.55;2.08;;;;;;;25.46;21.54;100440.45;1721690;83;21098;-76
2022/04/07 09:45:04;;;;;;;5.30;2.20;;;;;;;25.64;20.86;100442.99;1722106;83;21433;-77
2022/04/07 09:47:42;;;;;;;3.20;2.08;;;;;;;25.55;20.49;100436.63;1722345;83;20880;-76
2022/04/07 09:50:24;;;;;;;1.90;1.80;;;;;;;25.37;20.52;100435.25;1723206;81;20872;-74
2022/04/07 09:53:04;;;;;;;2.80;2.08;;;;;;;25.22;20.96;100423.75;1724225;83;20864;-75
2022/04/07 09:55:35;;;;;;;3.15;2.40;;;;;;;25.31;20.64;100429.30;1723040;82;22133;-77
2022/04/07 09:58:04;;;;;;;2.95;2.20;;;;;;;25.27;20.82;100424.52;1712713;82;20924;-76
2022/04/07 10:00:31;;;;;;;2.25;1.72;;;;;;;25.28;21.39;100421.64;1708943;84;20956;-76
2022/04/07 10:02:59;;;;;;;3.58;1.70;;;;;;;25.51;20.81;100423.27;1708925;82;21359;-76
2022/04/07 10:05:25;;;;;;;3.87;1.98;;;;;;;25.48;20.36;100416.44;1709128;82;20956;-76
2022/04/07 10:07:53;;;;;;;4.17;1.95;;;;;;;25.28;20.80;100403.34;1708941;84;21236;-75
2022/04/07 10:10:22;;;;;;;3.17;2.60;;;;;;;25.22;20.50;100404.96;1708904;84;20868;-76
2022/04/07 10:12:51;;;;;;;3.37;2.15;;;;;;;25.18;21.00;100403.65;1708727;82;20975;-76
2022/04/07 10:15:18;;;;;;;7.10;3.22;;;;;;;25.19;20.58;100407.52;1708763;84;20865;-75
2022/04/07 10:17:46;;;;;;;4.20;2.52;;;;;;;25.21;20.77;100401.94;1708984;82;20931;-77
2022/04/07 10:20:18;;;;;;;4.75;2.70;;;;;;;25.35;20.46;100398.88;1708747;82;21433;-76
2022/04/07 10:23:32;;;;;;;2.08;1.77;;;;;;;25.38;20.41;100385.87;1708758;82;21422;-77
2022/04/07 10:26:01;;;;;;;4.00;2.40;;;;;;;25.39;20.13;100388.90;1744808;82;20849;-76
2022/04/07 10:28:28;;;;;;;4.00;2.00;;;;;;;25.35;20.53;100392.99;1744568;82;20873;-75
2022/04/07 10:30:59;;;;;;;6.10;2.50;;;;;;;25.30;21.04;100373.97;1744730;81;20892;-75
2022/04/07 10:33:46;;;;;;;7.42;2.30;;;;;;;25.38;21.23;100375.14;1700672;84;21245;-77
2022/04/07 10:36:22;;;;;;;7.45;2.20;;;;;;;25.50;20.74;100379.48;1708932;84;20877;-76
2022/04/07 10:38:52;;;;;;;3.83;2.47;;;;;;;25.65;20.38;100372.12;1709155;84;20872;-77
2022/04/07 10:41:43;;;;;;;3.25;1.90;;;;;;;25.72;20.32;100366.78;1708794;84;21030;-78
2022/04/07 10:44:21;;;;;;;2.25;2.05;;;;;;;25.65;20.27;100368.09;1708928;82;21042;-76
2022/04/07 10:46:48;;;;;;;2.58;2.30;;;;;;;25.59;20.02;100358.16;1708856;82;21558;-77
2022/04/07 10:49:24;;;;;;;3.95;2.05;;;;;;;25.59;20.37;100361.34;1708740;84;21011;-76
2022/04/07 10:51:55;;;;;;;3.52;2.17;;;;;;;25.60;20.42;100357.64;1708917;84;21493;-76
2022/04/07 10:54:22;;;;;;;3.62;2.72;;;;;;;25.63;20.49;100346.49;1708764;84;20912;-77
2022/04/07 10:56:52;;;;;;;2.67;2.37;;;;;;;25.69;20.88;100341.67;1735183;81;20933;-77
2022/04/07 10:59:21;;;;;;;4.97;1.80;;;;;;;25.74;20.77;100344.59;1757881;81;21149;-76
2022/04/07 11:02:02;;;;;;;3.80;1.95;;;;;;;25.80;20.90;100344.33;1757913;81;20841;-75
2022/04/07 11:04:42;;;;;;;3.02;2.30;;;;;;;25.83;21.08;100338.54;1757872;81;20998;-75
2022/04/07 11:07:13;;;;;;;4.22;2.12;;;;;;;25.80;20.42;100339.77;1758178;80;20861;-76
2022/04/07 11:09:58;;;;;;;1.80;1.70;;;;;;;25.62;20.73;100318.81;1758052;81;20940;-77
2022/04/07 11:12:31;;;;;;;1.85;1.52;;;;;;;25.53;21.12;100311.95;1757911;81;20948;-76
2022/04/07 11:15:09;;;;;;;;;;;;;;;25.56;21.21;100298.11;1760553;81;21357;-76
2022/04/07 11:17:46;;;;;;;4.60;1.95;;;;;;;25.57;21.47;100303.81;1757816;81;20093;-76
2022/04/07 11:20:26;;;;;;;4.65;1.85;;;;;;;25.50;21.28;100300.27;1758296;81;20892;-76
2022/04/07 11:23:13;;;;;;;2.70;1.50;;;;;;;25.45;21.63;100294.64;1758073;81;21512;-76
2022/04/07 11:25:42;;;;;;;3.08;1.82;;;;;;;25.44;21.49;100284.42;1757991;81;21608;-77
2022/04/07 11:28:14;;;;;;;8.40;1.92;;;;;;;25.23;21.75;100278.63;1757862;80;20853;-77
2022/04/07 11:30:50;;;;;;;2.35;2.15;;;;;;;25.09;22.37;100288.08;1758066;81;21390;-76
2022/04/07 11:33:28;;;;;;;3.20;1.55;;;;;;;25.07;22.66;100272.17;1757912;80;20947;-76